Time;durP1;ratioP1;P1;durP2;ratioP2;P2;SDS_P1;SDS_P2;PMS_P1;PMS_P2;Temp;Humidity;BMP_temperature;BMP_pressure;BME280_temperature;BME280_humidity;BME280_pressure;Samples;Min_cycle;Max_cycle;Signal;HPM_P1;HPM_P2
2021/07/01 00:00:29;;;;;;;0.10;0.10;;;;;;;;;;5010117;28;20478;-80
2021/07/01 00:02:55;;;;;;;0.20;0.20;;;;;;;;;;5024249;28;20018;-80
2021/07/01 00:05:21;;;;;;;0.40;0.20;;;;;;;;;;5036009;28;20097;-80
2021/07/01 00:07:48;;;;;;;0.10;0.10;;;;;;;;;;5030259;28;20026;-80
2021/07/01 00:10:14;;;;;;;0.03;0.03;;;;;;;;;;5002729;28;20166;-80
2021/07/01 00:12:40;;;;;;;0.30;0.20;;;;;;;;;;4984594;28;20492;-81
2021/07/01 00:15:08;;;;;;;0.47;0.20;;;;;;;;;;5001895;28;20388;-80
2021/07/01 00:17:35;;;;;;;0.22;0.22;;;;;;;;;;5002334;28;20034;-81
2021/07/01 00:20:01;;;;;;;0.10;0.10;;;;;;;;;;4991469;28;20057;-81
2021/07/01 00:22:27;;;;;;;1.50;0.30;;;;;;;;;;5018038;28;20015;-81
2021/07/01 00:24:53;;;;;;;0.20;0.20;;;;;;;;;;4998104;28;20129;-79
2021/07/01 00:27:19;;;;;;;1.55;0.13;;;;;;;;;;4997452;28;20030;-79
2021/07/01 00:29:45;;;;;;;0.22;0.20;;;;;;;;;;5005706;28;20029;-80
2021/07/01 00:32:11;;;;;;;0.22;0.22;;;;;;;;;;5009435;28;20026;-80
2021/07/01 00:34:37;;;;;;;0.30;0.30;;;;;;;;;;5020243;28;20125;-79
2021/07/01 00:37:03;;;;;;;1.15;0.40;;;;;;;;;;5008540;28;20069;-79
2021/07/01 00:39:29;;;;;;;0.40;0.20;;;;;;;;;;4991239;28;20046;-80
2021/07/01 00:41:55;;;;;;;0.20;0.20;;;;;;;;;;5002199;28;20034;-81
2021/07/01 00:44:21;;;;;;;0.47;0.30;;;;;;;;;;4983951;28;20042;-80
2021/07/01 00:46:48;;;;;;;0.20;0.20;;;;;;;;;;5004448;28;20019;-82
2021/07/01 00:49:14;;;;;;;0.93;0.30;;;;;;;;;;5003527;28;20101;-80
2021/07/01 00:51:40;;;;;;;0.75;0.47;;;;;;;;;;4985090;28;20363;-80
2021/07/01 00:54:07;;;;;;;0.82;0.30;;;;;;;;;;4988264;28;20057;-79
2021/07/01 00:56:39;;;;;;;0.30;0.30;;;;;;;;;;5001572;28;20455;-81
2021/07/01 00:59:07;;;;;;;0.50;0.50;;;;;;;;;;5002566;28;20260;-82
2021/07/01 01:01:33;;;;;;;0.10;0.10;;;;;;;;;;5008762;28;20479;-80
2021/07/01 01:04:00;;;;;;;0.30;0.30;;;;;;;;;;4999398;28;20050;-81
2021/07/01 01:06:27;;;;;;;1.33;0.40;;;;;;;;;;4998361;28;20432;-80
2021/07/01 01:08:53;;;;;;;0.30;0.30;;;;;;;;;;4999549;28;20109;-81
2021/07/01 01:11:24;;;;;;;0.30;0.30;;;;;;;;;;4999627;28;20061;-81
2021/07/01 01:13:51;;;;;;;0.55;0.40;;;;;;;;;;4999902;28;20027;-80
2021/07/01 01:16:18;;;;;;;0.30;0.30;;;;;;;;;;5000004;28;20026;-81
2021/07/01 01:18:44;;;;;;;1.15;0.38;;;;;;;;;;4999312;28;20053;-80
2021/07/01 01:21:11;;;;;;;0.50;0.50;;;;;;;;;;5002108;28;20038;-80
2021/07/01 01:23:37;;;;;;;0.30;0.30;;;;;;;;;;5003066;28;20029;-80
2021/07/01 01:26:03;;;;;;;0.40;0.40;;;;;;;;;;4982975;28;20053;-82
2021/07/01 01:28:29;;;;;;;4.57;0.77;;;;;;;;;;5000963;28;20053;-82
2021/07/01 01:30:56;;;;;;;1.05;0.60;;;;;;;;;;5010943;28;20035;-81
2021/07/01 01:33:22;;;;;;;0.50;0.50;;;;;;;;;;5023979;28;20065;-81
2021/07/01 01:35:48;;;;;;;3.10;0.50;;;;;;;;;;5004836;28;20033;-81
2021/07/01 01:38:16;;;;;;;0.45;0.22;;;;;;;;;;5003811;28;20061;-81
2021/07/01 01:40:44;;;;;;;0.68;0.52;;;;;;;;;;4985141;28;20053;-81
2021/07/01 01:43:10;;;;;;;0.40;0.40;;;;;;;;;;4987482;28;20019;-81
2021/07/01 01:45:40;;;;;;;0.65;0.55;;;;;;;;;;4992204;28;20649;-80
2021/07/01 01:48:06;;;;;;;1.27;0.57;;;;;;;;;;5009040;28;20117;-81
2021/07/01 01:50:33;;;;;;;1.55;0.40;;;;;;;;;;5010351;28;20094;-80
2021/07/01 01:52:59;;;;;;;0.60;0.50;;;;;;;;;;4991950;28;20046;-81
2021/07/01 01:55:25;;;;;;;0.57;0.57;;;;;;;;;;5008537;28;20042;-81
2021/07/01 01:57:52;;;;;;;0.35;0.35;;;;;;;;;;5009254;28;20041;-81
2021/07/01 02:00:20;;;;;;;0.30;0.30;;;;;;;;;;5022543;23;20033;-73
2021/07/01 02:02:47;;;;;;;0.55;0.45;;;;;;;;;;5038217;28;20064;-73
2021/07/01 02:05:13;;;;;;;0.55;0.40;;;;;;;;;;5033607;28;20492;-73
2021/07/01 02:07:40;;;;;;;1.02;0.32;;;;;;;;;;5033376;28;20036;-73
2021/07/01 02:10:09;;;;;;;1.67;0.57;;;;;;;;;;5033050;28;20033;-73
2021/07/01 02:12:35;;;;;;;0.90;0.65;;;;;;;;;;5033091;28;20025;-73
2021/07/01 02:15:01;;;;;;;0.40;0.40;;;;;;;;;;5034148;28;20029;-74
2021/07/01 02:17:27;;;;;;;0.43;0.40;;;;;;;;;;5033066;28;20033;-73
2021/07/01 02:19:53;;;;;;;0.35;0.35;;;;;;;;;;5037279;28;20044;-73
2021/07/01 02:22:20;;;;;;;0.47;0.30;;;;;;;;;;5037389;28;20021;-73
2021/07/01 02:24:46;;;;;;;0.45;0.30;;;;;;;;;;5019895;28;20049;-73
2021/07/01 02:27:12;;;;;;;0.88;0.40;;;;;;;;;;5036887;28;20353;-74
2021/07/01 02:29:38;;;;;;;1.75;0.22;;;;;;;;;;5036398;28;20100;-73
2021/07/01 02:32:04;;;;;;;0.90;0.30;;;;;;;;;;5048315;28;20079;-74
2021/07/01 02:34:31;;;;;;;0.30;0.30;;;;;;;;;;5057273;28;20032;-73
2021/07/01 02:36:57;;;;;;;0.30;0.30;;;;;;;;;;5047079;28;20087;-73
2021/07/01 02:39:23;;;;;;;0.70;0.30;;;;;;;;;;5036751;28;20033;-73
2021/07/01 02:41:49;;;;;;;0.75;0.30;;;;;;;;;;5036360;28;20433;-73
2021/07/01 02:44:16;;;;;;;1.65;0.40;;;;;;;;;;5036495;28;20061;-73
2021/07/01 02:46:44;;;;;;;0.40;0.40;;;;;;;;;;5036360;28;20248;-73
2021/07/01 02:49:10;;;;;;;0.50;0.40;;;;;;;;;;5036125;28;20060;-73
2021/07/01 02:51:36;;;;;;;0.43;0.43;;;;;;;;;;5036969;28;20022;-74
2021/07/01 02:54:02;;;;;;;0.65;0.50;;;;;;;;;;5019245;28;20018;-73
2021/07/01 02:56:39;;;;;;;2.17;0.40;;;;;;;;;;5019587;28;20030;-73
2021/07/01 02:59:05;;;;;;;0.80;0.50;;;;;;;;;;5008503;28;20033;-74
2021/07/01 03:01:31;;;;;;;0.50;0.50;;;;;;;;;;5047847;28;20035;-73
2021/07/01 03:03:57;;;;;;;2.03;0.57;;;;;;;;;;5056651;28;20068;-73
2021/07/01 03:06:23;;;;;;;2.10;0.80;;;;;;;;;;5056703;28;20025;-73
2021/07/01 03:08:50;;;;;;;0.50;0.50;;;;;;;;;;5039562;28;20021;-73
2021/07/01 03:11:16;;;;;;;1.27;0.73;;;;;;;;;;5017906;28;20037;-74
2021/07/01 03:13:42;;;;;;;0.65;0.65;;;;;;;;;;5036309;28;20025;-73
2021/07/01 03:16:08;;;;;;;0.70;0.70;;;;;;;;;;5035509;28;20375;-73
2021/07/01 03:18:34;;;;;;;0.98;0.50;;;;;;;;;;5017356;28;20048;-73
2021/07/01 03:21:00;;;;;;;0.70;0.70;;;;;;;;;;5035308;28;20041;-73
2021/07/01 03:23:26;;;;;;;1.17;0.75;;;;;;;;;;5035327;28;20493;-73
2021/07/01 03:25:52;;;;;;;0.75;0.73;;;;;;;;;;5035636;28;20107;-73
2021/07/01 03:28:18;;;;;;;0.93;0.90;;;;;;;;;;5033752;28;20076;-73
2021/07/01 03:30:44;;;;;;;0.88;0.60;;;;;;;;;;5044441;28;20038;-73
2021/07/01 03:33:10;;;;;;;0.88;0.70;;;;;;;;;;5036366;28;20041;-73
2021/07/01 03:35:36;;;;;;;0.60;0.60;;;;;;;;;;5035103;28;20081;-73
2021/07/01 03:38:02;;;;;;;0.57;0.57;;;;;;;;;;5035185;28;20027;-73
2021/07/01 03:40:29;;;;;;;0.52;0.52;;;;;;;;;;5035090;28;20040;-73
2021/07/01 03:42:55;;;;;;;0.90;0.90;;;;;;;;;;5035214;28;20405;-73
2021/07/01 03:45:21;;;;;;;0.60;0.60;;;;;;;;;;5035692;28;20034;-73
2021/07/01 03:47:47;;;;;;;1.02;0.68;;;;;;;;;;5035266;28;20036;-73
2021/07/01 03:50:13;;;;;;;0.90;0.90;;;;;;;;;;5035196;28;20045;-73
2021/07/01 03:52:39;;;;;;;1.15;0.70;;;;;;;;;;5017571;28;20025;-73
2021/07/01 03:55:05;;;;;;;0.80;0.80;;;;;;;;;;5035924;28;20053;-73
2021/07/01 03:57:31;;;;;;;0.80;0.80;;;;;;;;;;5017711;28;20176;-73
2021/07/01 03:59:57;;;;;;;1.05;1.00;;;;;;;;;;5042692;28;20040;-73
2021/07/01 04:02:23;;;;;;;0.68;0.68;;;;;;;;;;5047059;28;20049;-73
2021/07/01 04:04:49;;;;;;;0.52;0.52;;;;;;;;;;5040511;28;20025;-73
2021/07/01 04:07:15;;;;;;;0.90;0.90;;;;;;;;;;5017519;28;20040;-73
2021/07/01 04:09:41;;;;;;;0.68;0.57;;;;;;;;;;5034612;28;20394;-72
2021/07/01 04:12:08;;;;;;;1.38;0.70;;;;;;;;;;5034383;28;20492;-72
2021/07/01 04:14:34;;;;;;;1.48;0.75;;;;;;;;;;5034455;28;20022;-73
2021/07/01 04:17:00;;;;;;;1.40;1.30;;;;;;;;;;5016607;28;20117;-74
2021/07/01 04:19:26;;;;;;;1.50;0.98;;;;;;;;;;5034296;28;20450;-74
2021/07/01 04:21:52;;;;;;;0.95;0.95;;;;;;;;;;5034815;28;20029;-73
2021/07/01 04:24:18;;;;;;;1.05;1.05;;;;;;;;;;5034751;28;20402;-73
2021/07/01 04:26:44;;;;;;;1.50;1.40;;;;;;;;;;5034330;28;20052;-73
2021/07/01 04:29:10;;;;;;;1.10;1.10;;;;;;;;;;5030498;28;20463;-74
2021/07/01 04:31:37;;;;;;;0.90;0.90;;;;;;;;;;5046225;28;20037;-74
2021/07/01 04:34:03;;;;;;;1.10;1.00;;;;;;;;;;5034432;28;20080;-74
2021/07/01 04:36:29;;;;;;;1.02;1.00;;;;;;;;;;5034492;28;20025;-74
2021/07/01 04:38:55;;;;;;;0.80;0.80;;;;;;;;;;5033999;28;20060;-74
2021/07/01 04:41:21;;;;;;;1.02;1.00;;;;;;;;;;5033523;28;20419;-73
2021/07/01 04:43:48;;;;;;;0.90;0.90;;;;;;;;;;5016777;28;20030;-74
2021/07/01 04:46:14;;;;;;;0.80;0.80;;;;;;;;;;5034310;28;20056;-74
2021/07/01 04:48:43;;;;;;;1.42;1.33;;;;;;;;;;5034369;28;20045;-74
2021/07/01 04:51:10;;;;;;;1.65;1.20;;;;;;;;;;5033621;28;20363;-74
2021/07/01 04:53:38;;;;;;;1.50;1.05;;;;;;;;;;5034295;28;20423;-74
2021/07/01 04:56:05;;;;;;;1.25;0.98;;;;;;;;;;5016684;28;20064;-73
2021/07/01 04:58:31;;;;;;;7.35;1.40;;;;;;;;;;5034161;28;20080;-73
2021/07/01 05:00:57;;;;;;;1.40;1.30;;;;;;;;;;5042013;28;20075;-73
2021/07/01 05:03:23;;;;;;;3.42;1.10;;;;;;;;;;5036299;28;20064;-73
2021/07/01 05:05:49;;;;;;;1.05;1.02;;;;;;;;;;5054278;28;20028;-73
2021/07/01 05:08:16;;;;;;;0.70;0.70;;;;;;;;;;5053936;28;20025;-73
2021/07/01 05:10:42;;;;;;;1.63;1.52;;;;;;;;;;5054097;28;20027;-73
2021/07/01 05:13:08;;;;;;;0.90;0.90;;;;;;;;;;5019112;28;20029;-74
2021/07/01 05:15:34;;;;;;;1.00;1.00;;;;;;;;;;5015801;28;20051;-73
2021/07/01 05:18:01;;;;;;;0.80;0.80;;;;;;;;;;5015175;28;20366;-73
2021/07/01 05:20:27;;;;;;;1.65;1.23;;;;;;;;;;5033716;28;20029;-73
2021/07/01 05:22:53;;;;;;;1.33;0.93;;;;;;;;;;5033198;28;20064;-73
2021/07/01 05:25:20;;;;;;;1.67;0.93;;;;;;;;;;5033356;28;20050;-73
2021/07/01 05:27:46;;;;;;;0.75;0.75;;;;;;;;;;5033486;28;20363;-72
2021/07/01 05:30:12;;;;;;;0.98;0.98;;;;;;;;;;5022931;28;20146;-73
2021/07/01 05:32:38;;;;;;;1.25;1.13;;;;;;;;;;5040618;28;20030;-73
2021/07/01 05:35:05;;;;;;;1.17;0.85;;;;;;;;;;5033340;28;20030;-73
2021/07/01 05:37:31;;;;;;;0.90;0.90;;;;;;;;;;5033233;28;20033;-74
2021/07/01 05:39:57;;;;;;;1.30;1.20;;;;;;;;;;5033112;28;20083;-73
2021/07/01 05:42:23;;;;;;;1.23;0.80;;;;;;;;;;5033243;28;20033;-74
2021/07/01 05:44:49;;;;;;;1.02;1.02;;;;;;;;;;5033226;28;20029;-74
2021/07/01 05:47:15;;;;;;;2.15;1.08;;;;;;;;;;5033416;28;20036;-73
2021/07/01 05:49:41;;;;;;;1.60;1.23;;;;;;;;;;5014781;28;20516;-73
2021/07/01 05:52:08;;;;;;;0.80;0.80;;;;;;;;;;5032927;28;20089;-74
2021/07/01 05:54:36;;;;;;;1.40;1.30;;;;;;;;;;5031970;28;20034;-72
2021/07/01 05:57:04;;;;;;;2.13;1.30;;;;;;;;;;5032840;28;20033;-73
2021/07/01 05:59:30;;;;;;;1.67;1.20;;;;;;;;;;5031553;28;20036;-73
2021/07/01 06:01:56;;;;;;;1.52;1.30;;;;;;;;;;5041006;28;20033;-73
2021/07/01 06:04:22;;;;;;;2.20;1.25;;;;;;;;;;5029957;28;20029;-73
2021/07/01 06:06:50;;;;;;;1.95;1.15;;;;;;;;;;5015005;28;20490;-73
2021/07/01 06:09:16;;;;;;;2.47;1.35;;;;;;;;;;5032149;28;20515;-74
2021/07/01 06:11:42;;;;;;;1.15;1.05;;;;;;;;;;5032478;28;20071;-75
2021/07/01 06:14:08;;;;;;;2.42;1.02;;;;;;;;;;5032878;28;20159;-76
2021/07/01 06:16:36;;;;;;;1.35;1.20;;;;;;;;;;5032001;28;20033;-74
2021/07/01 06:19:03;;;;;;;1.70;1.35;;;;;;;;;;5032763;28;20026;-75
2021/07/01 06:21:30;;;;;;;3.03;1.48;;;;;;;;;;5014561;28;20025;-75
2021/07/01 06:23:56;;;;;;;1.50;1.40;;;;;;;;;;5032526;28;20045;-77
2021/07/01 06:26:27;;;;;;;3.53;1.70;;;;;;;;;;5033579;28;20025;-75
2021/07/01 06:28:54;;;;;;;1.63;1.10;;;;;;;;;;5032623;28;20363;-75
2021/07/01 06:31:20;;;;;;;1.85;1.50;;;;;;;;;;5044348;28;20047;-74
2021/07/01 06:33:47;;;;;;;2.47;1.20;;;;;;;;;;5052481;28;20025;-74
2021/07/01 06:36:13;;;;;;;3.58;1.40;;;;;;;;;;5033646;28;20056;-74
2021/07/01 06:38:42;;;;;;;1.45;1.25;;;;;;;;;;5032486;28;20032;-74
2021/07/01 06:41:09;;;;;;;2.25;1.00;;;;;;;;;;5014177;28;20026;-74
2021/07/01 06:43:36;;;;;;;2.28;2.08;;;;;;;;;;5032591;28;20017;-74
2021/07/01 06:46:04;;;;;;;2.65;1.55;;;;;;;;;;5032181;28;20367;-75
2021/07/01 06:48:30;;;;;;;1.85;1.50;;;;;;;;;;5032138;28;20089;-75
2021/07/01 06:50:58;;;;;;;1.83;1.50;;;;;;;;;;5031966;28;20026;-75
2021/07/01 06:53:25;;;;;;;3.03;1.30;;;;;;;;;;5032026;28;20029;-75
2021/07/01 06:55:52;;;;;;;3.08;1.90;;;;;;;;;;5032033;28;20421;-74
2021/07/01 06:58:19;;;;;;;2.10;1.98;;;;;;;;;;5031253;28;20036;-76
2021/07/01 07:00:45;;;;;;;2.30;1.60;;;;;;;;;;5034045;28;20030;-74
2021/07/01 07:03:16;;;;;;;2.38;1.50;;;;;;;;;;5050816;28;20163;-75
2021/07/01 07:05:42;;;;;;;1.70;1.60;;;;;;;;;;5029620;28;20029;-75
2021/07/01 07:08:12;;;;;;;1.50;1.40;;;;;;;;;;5036437;28;20385;-74
2021/07/01 07:10:41;;;;;;;1.73;1.50;;;;;;;;;;5036612;28;20022;-75
2021/07/01 07:13:07;;;;;;;1.45;1.20;;;;;;;;;;5036271;28;20060;-74
2021/07/01 07:15:33;;;;;;;2.97;1.13;;;;;;;;;;5036588;28;20414;-75
2021/07/01 07:18:15;;;;;;;1.60;1.50;;;;;;;;;;5036652;28;20402;-75
2021/07/01 07:20:43;;;;;;;0.90;0.90;;;;;;;;;;5035934;28;20037;-75
2021/07/01 07:23:09;;;;;;;1.10;1.00;;;;;;;;;;5036651;28;20509;-76
2021/07/01 07:25:39;;;;;;;2.25;1.17;;;;;;;;;;5036275;28;20029;-75
2021/07/01 07:28:06;;;;;;;2.13;1.08;;;;;;;;;;5035805;28;20092;-74
2021/07/01 07:30:33;;;;;;;0.82;0.82;;;;;;;;;;5043774;28;20025;-74
2021/07/01 07:33:02;;;;;;;1.95;0.90;;;;;;;;;;5055317;28;20032;-74
2021/07/01 07:35:28;;;;;;;1.70;1.02;;;;;;;;;;5057023;28;20025;-74
2021/07/01 07:37:55;;;;;;;1.73;1.13;;;;;;;;;;5039890;28;20160;-74
2021/07/01 07:40:21;;;;;;;2.08;0.88;;;;;;;;;;5035402;28;20030;-74
2021/07/01 07:42:47;;;;;;;2.50;0.65;;;;;;;;;;5036922;28;20359;-75
2021/07/01 07:45:14;;;;;;;1.15;0.80;;;;;;;;;;5036665;28;20021;-76
2021/07/01 07:47:41;;;;;;;0.90;0.90;;;;;;;;;;5034843;28;20071;-74
2021/07/01 07:50:08;;;;;;;2.05;0.80;;;;;;;;;;5034738;28;20104;-75
2021/07/01 07:52:35;;;;;;;2.33;1.13;;;;;;;;;;5017711;28;20382;-75
2021/07/01 07:55:05;;;;;;;0.93;0.93;;;;;;;;;;5035050;28;20325;-75
2021/07/01 07:57:31;;;;;;;0.70;0.70;;;;;;;;;;5035222;28;20021;-75
2021/07/01 07:59:58;;;;;;;2.28;1.25;;;;;;;;;;5042970;28;20465;-75
2021/07/01 08:02:27;;;;;;;2.70;1.45;;;;;;;;;;5030247;28;20017;-75
2021/07/01 08:04:53;;;;;;;1.08;0.90;;;;;;;;;;5056779;28;20032;-76
2021/07/01 08:07:21;;;;;;;1.00;0.82;;;;;;;;;;5036825;28;20186;-75
2021/07/01 08:09:47;;;;;;;1.45;0.77;;;;;;;;;;5036481;28;20026;-75
2021/07/01 08:12:15;;;;;;;1.67;1.08;;;;;;;;;;5035879;28;20026;-75
2021/07/01 08:14:43;;;;;;;0.55;0.55;;;;;;;;;;5017241;28;20030;-75
2021/07/01 08:17:09;;;;;;;0.77;0.50;;;;;;;;;;5034034;28;20023;-75
2021/07/01 08:19:36;;;;;;;1.45;0.63;;;;;;;;;;5033836;28;20033;-74
2021/07/01 08:22:02;;;;;;;0.98;0.68;;;;;;;;;;5034775;28;20504;-74
2021/07/01 08:24:29;;;;;;;0.80;0.80;;;;;;;;;;5034735;28;20084;-74
2021/07/01 08:26:55;;;;;;;2.25;0.98;;;;;;;;;;5034494;28;20033;-75
2021/07/01 08:29:21;;;;;;;3.65;1.35;;;;;;;;;;5028477;28;20113;-75
2021/07/01 08:31:49;;;;;;;2.00;1.15;;;;;;;;;;5034346;28;20029;-76
2021/07/01 08:34:18;;;;;;;1.40;0.63;;;;;;;;;;5037285;28;20025;-75
2021/07/01 08:36:46;;;;;;;0.95;0.82;;;;;;;;;;5036028;28;20057;-75
2021/07/01 08:39:12;;;;;;;0.70;0.70;;;;;;;;;;5035109;28;20517;-73
2021/07/01 08:41:41;;;;;;;1.23;1.10;;;;;;;;;;5035210;28;20108;-75
2021/07/01 08:44:10;;;;;;;1.35;0.77;;;;;;;;;;5017823;28;20026;-75
2021/07/01 08:46:54;;;;;;;0.90;0.90;;;;;;;;;;5035353;28;20036;-75
2021/07/01 08:49:37;;;;;;;1.85;1.40;;;;;;;;;;5035489;28;20497;-75
2021/07/01 08:52:07;;;;;;;1.33;0.70;;;;;;;;;;5018384;28;20022;-75
2021/07/01 08:54:35;;;;;;;1.45;1.08;;;;;;;;;;5034793;28;20060;-76
2021/07/01 08:57:02;;;;;;;2.92;0.90;;;;;;;;;;5034924;28;20021;-76
2021/07/01 08:59:37;;;;;;;2.85;1.20;;;;;;;;;;5035016;28;20029;-76
2021/07/01 09:02:07;;;;;;;1.20;1.10;;;;;;;;;;5030851;28;20033;-76
2021/07/01 09:05:02;;;;;;;1.20;1.13;;;;;;;;;;5057213;28;20029;-76
2021/07/01 09:07:28;;;;;;;1.17;1.10;;;;;;;;;;5041722;28;20044;-76
2021/07/01 09:10:04;;;;;;;3.28;1.10;;;;;;;;;;5038937;28;20030;-76
2021/07/01 09:12:30;;;;;;;0.88;0.88;;;;;;;;;;5035191;28;20113;-76
2021/07/01 09:14:58;;;;;;;3.05;1.70;;;;;;;;;;5035299;28;20036;-76
2021/07/01 09:17:30;;;;;;;1.55;1.30;;;;;;;;;;5034858;28;20083;-75
2021/07/01 09:19:57;;;;;;;0.90;0.90;;;;;;;;;;5019195;28;20039;-76
2021/07/01 09:22:24;;;;;;;1.50;1.30;;;;;;;;;;5034937;28;20433;-76
2021/07/01 09:24:50;;;;;;;3.03;1.00;;;;;;;;;;5034720;28;20030;-76
2021/07/01 09:27:17;;;;;;;2.10;1.02;;;;;;;;;;5033970;28;20030;-75
2021/07/01 09:29:44;;;;;;;2.38;1.52;;;;;;;;;;5033207;28;20029;-76
2021/07/01 09:32:11;;;;;;;1.75;1.65;;;;;;;;;;5042720;28;20034;-75
2021/07/01 09:34:38;;;;;;;1.67;1.52;;;;;;;;;;5034732;28;20022;-76
2021/07/01 09:37:05;;;;;;;2.35;1.88;;;;;;;;;;5034462;28;20032;-76
2021/07/01 09:39:32;;;;;;;1.92;1.63;;;;;;;;;;5034055;28;20104;-75
2021/07/01 09:42:00;;;;;;;2.05;1.40;;;;;;;;;;5034018;28;20381;-75
2021/07/01 09:44:28;;;;;;;2.65;1.50;;;;;;;;;;5034025;28;20068;-76
2021/07/01 09:46:56;;;;;;;2.03;1.77;;;;;;;;;;5034119;28;20020;-75
2021/07/01 09:49:29;;;;;;;1.73;1.63;;;;;;;;;;5033938;28;20097;-75
2021/07/01 09:51:57;;;;;;;1.77;1.67;;;;;;;;;;5033677;28;20022;-75
2021/07/01 09:54:23;;;;;;;2.22;1.38;;;;;;;;;;5034297;28;20022;-75
2021/07/01 09:56:54;;;;;;;2.05;1.70;;;;;;;;;;5016104;28;20018;-76
2021/07/01 09:59:31;;;;;;;1.90;1.80;;;;;;;;;;5036855;28;20126;-76
2021/07/01 10:02:17;;;;;;;1.65;1.55;;;;;;;;;;5045472;28;20111;-75
2021/07/01 10:04:47;;;;;;;1.77;1.38;;;;;;;;;;5035691;28;20108;-76
2021/07/01 10:07:17;;;;;;;1.23;1.13;;;;;;;;;;5053940;28;20127;-75
2021/07/01 10:09:44;;;;;;;1.33;1.23;;;;;;;;;;5054782;28;20033;-75
2021/07/01 10:12:19;;;;;;;2.17;1.23;;;;;;;;;;5048614;28;20047;-75
2021/07/01 10:14:46;;;;;;;1.83;1.30;;;;;;;;;;5018788;28;20394;-75
2021/07/01 10:17:16;;;;;;;1.45;1.30;;;;;;;;;;5038239;28;20029;-75
2021/07/01 10:19:43;;;;;;;1.73;1.08;;;;;;;;;;5039475;28;20081;-75
2021/07/01 10:22:10;;;;;;;1.42;1.30;;;;;;;;;;5037245;28;20112;-74
2021/07/01 10:24:52;;;;;;;2.50;1.15;;;;;;;;;;5034065;28;20037;-76
2021/07/01 10:27:54;;;;;;;1.55;1.17;;;;;;;;;;5034071;28;20466;-76
2021/07/01 10:30:25;;;;;;;1.58;1.48;;;;;;;;;;4980207;28;20105;-75
2021/07/01 10:32:54;;;;;;;1.52;1.42;;;;;;;;;;5023955;28;20095;-74
2021/07/01 10:35:20;;;;;;;1.17;1.10;;;;;;;;;;5033628;28;20130;-75
2021/07/01 10:38:15;;;;;;;1.13;1.10;;;;;;;;;;5036007;28;20025;-74
2021/07/01 10:40:42;;;;;;;1.30;1.20;;;;;;;;;;5023177;28;20033;-75
2021/07/01 10:43:09;;;;;;;1.38;1.27;;;;;;;;;;5036718;28;20040;-74
2021/07/01 10:45:35;;;;;;;1.80;1.55;;;;;;;;;;5036912;28;20081;-75
2021/07/01 10:48:18;;;;;;;1.20;1.00;;;;;;;;;;5036453;28;20071;-75
2021/07/01 10:50:45;;;;;;;1.30;1.20;;;;;;;;;;5036780;28;20104;-74
2021/07/01 10:53:26;;;;;;;1.50;1.40;;;;;;;;;;5041660;28;20029;-74
2021/07/01 10:55:53;;;;;;;3.13;1.63;;;;;;;;;;5020583;28;20029;-75
2021/07/01 10:58:20;;;;;;;1.70;1.35;;;;;;;;;;5037999;28;20017;-74
2021/07/01 11:00:46;;;;;;;1.77;1.63;;;;;;;;;;5029050;28;20056;-73
2021/07/01 11:03:25;;;;;;;1.83;1.42;;;;;;;;;;5038097;28;20386;-73
2021/07/01 11:05:51;;;;;;;2.17;1.50;;;;;;;;;;5034458;28;20022;-74
2021/07/01 11:08:24;;;;;;;1.20;1.10;;;;;;;;;;5036578;28;20032;-74
2021/07/01 11:10:50;;;;;;;1.30;1.20;;;;;;;;;;5036658;28;20037;-74
2021/07/01 11:13:17;;;;;;;3.25;1.63;;;;;;;;;;5036249;28;20446;-74
2021/07/01 11:16:02;;;;;;;1.55;1.40;;;;;;;;;;5037399;28;20033;-74
2021/07/01 11:18:34;;;;;;;1.77;1.33;;;;;;;;;;5035665;28;20021;-75
2021/07/01 11:21:10;;;;;;;2.10;1.20;;;;;;;;;;5018295;28;20022;-80
2021/07/01 11:23:36;;;;;;;2.00;1.45;;;;;;;;;;5038557;28;20032;-74
2021/07/01 11:26:03;;;;;;;2.65;1.23;;;;;;;;;;5030048;28;20029;-74
2021/07/01 11:28:29;;;;;;;2.08;1.30;;;;;;;;;;5035380;28;20036;-73
2021/07/01 11:30:59;;;;;;;1.40;1.30;;;;;;;;;;5045842;28;20167;-74
2021/07/01 11:33:26;;;;;;;1.83;1.58;;;;;;;;;;5042701;28;20710;-74
2021/07/01 11:36:08;;;;;;;2.97;1.70;;;;;;;;;;5043074;28;20045;-73
2021/07/01 11:38:34;;;;;;;2.25;1.95;;;;;;;;;;5039377;28;20026;-75
2021/07/01 11:41:04;;;;;;;1.95;1.80;;;;;;;;;;5036138;28;20029;-73
2021/07/01 11:43:31;;;;;;;2.83;1.80;;;;;;;;;;5020217;28;20113;-74
2021/07/01 11:45:57;;;;;;;1.92;1.75;;;;;;;;;;5036540;28;20058;-74
2021/07/01 11:48:25;;;;;;;3.17;2.10;;;;;;;;;;5017825;28;20036;-74
2021/07/01 11:50:52;;;;;;;1.90;1.63;;;;;;;;;;5033649;28;20407;-75
2021/07/01 11:53:23;;;;;;;4.13;1.88;;;;;;;;;;5021667;28;20025;-75
2021/07/01 11:55:51;;;;;;;2.45;1.92;;;;;;;;;;5021482;28;20032;-75
2021/07/01 11:58:17;;;;;;;1.65;1.50;;;;;;;;;;5019573;28;20690;-75
2021/07/01 12:00:44;;;;;;;5.10;2.78;;;;;;;;;;5053318;28;20058;-75
2021/07/01 12:03:11;;;;;;;2.20;2.00;;;;;;;;;;5021144;28;20112;-75
2021/07/01 12:05:44;;;;;;;2.00;1.90;;;;;;;;;;5019453;28;20113;-75
2021/07/01 12:08:11;;;;;;;2.42;2.00;;;;;;;;;;5017152;28;20536;-74
2021/07/01 12:10:37;;;;;;;1.85;1.30;;;;;;;;;;5038321;28;20033;-74
2021/07/01 12:13:23;;;;;;;6.85;2.35;;;;;;;;;;5020473;28;20021;-74
2021/07/01 12:16:02;;;;;;;1.48;1.38;;;;;;;;;;5046304;28;20390;-75
2021/07/01 12:18:46;;;;;;;1.80;1.70;;;;;;;;;;5040247;28;20475;-74
2021/07/01 12:21:12;;;;;;;3.17;1.98;;;;;;;;;;5036469;28;20021;-74
2021/07/01 12:23:57;;;;;;;3.33;2.10;;;;;;;;;;5039545;28;20021;-75
2021/07/01 12:26:50;;;;;;;2.30;1.80;;;;;;;;;;5034778;28;20056;-75
2021/07/01 12:29:15;;;;;;;;;;;;;;;;;;5029223;28;20126;-75
2021/07/01 12:31:42;;;;;;;3.80;2.35;;;;;;;;;;5045697;28;19908;-75
2021/07/01 12:34:26;;;;;;;1.90;1.80;;;;;;;;;;5036110;28;20036;-75
2021/07/01 12:37:03;;;;;;;3.63;1.92;;;;;;;;;;5046657;28;20041;-79
2021/07/01 12:39:30;;;;;;;1.60;1.50;;;;;;;;;;5016933;28;20035;-75
2021/07/01 12:41:56;;;;;;;6.97;1.90;;;;;;;;;;5033681;28;20033;-75
2021/07/01 12:44:33;;;;;;;2.30;2.10;;;;;;;;;;5033781;28;20040;-76
2021/07/01 12:47:06;;;;;;;1.40;1.30;;;;;;;;;;5016026;28;20021;-76
2021/07/01 12:49:33;;;;;;;3.45;1.30;;;;;;;;;;5033529;28;20048;-75
2021/07/01 12:52:01;;;;;;;2.90;1.70;;;;;;;;;;5031910;28;20021;-75
2021/07/01 12:54:30;;;;;;;1.40;1.30;;;;;;;;;;5033086;28;20390;-75
2021/07/01 12:56:56;;;;;;;1.35;1.25;;;;;;;;;;5033207;28;20029;-76
2021/07/01 12:59:26;;;;;;;1.58;1.48;;;;;;;;;;5036886;28;20013;-76
2021/07/01 13:01:52;;;;;;;3.45;1.88;;;;;;;;;;5044158;28;20033;-75
2021/07/01 13:04:22;;;;;;;1.40;1.30;;;;;;;;;;5052173;28;20428;-75
2021/07/01 13:06:48;;;;;;;1.05;0.95;;;;;;;;;;5053122;28;20487;-75
2021/07/01 13:09:32;;;;;;;1.90;1.30;;;;;;;;;;5034387;28;20374;-76
2021/07/01 13:11:59;;;;;;;2.17;1.42;;;;;;;;;;5031372;28;20057;-76
2021/07/01 13:14:26;;;;;;;1.80;1.70;;;;;;;;;;5032963;28;20181;-76
2021/07/01 13:17:01;;;;;;;2.03;1.88;;;;;;;;;;5032657;28;20083;-75
2021/07/01 13:19:27;;;;;;;1.48;1.38;;;;;;;;;;5032297;28;20056;-76
2021/07/01 13:21:58;;;;;;;1.98;1.60;;;;;;;;;;5014974;28;20022;-75
2021/07/01 13:24:25;;;;;;;4.00;1.95;;;;;;;;;;5032946;28;20032;-75
2021/07/01 13:26:56;;;;;;;2.70;1.60;;;;;;;;;;5030525;28;20037;-75
2021/07/01 13:29:34;;;;;;;1.60;1.50;;;;;;;;;;5034635;28;20016;-75
2021/07/01 13:32:07;;;;;;;2.50;1.73;;;;;;;;;;5044391;28;20027;-74
2021/07/01 13:34:34;;;;;;;3.85;1.40;;;;;;;;;;5053110;28;20635;-75
2021/07/01 13:37:19;;;;;;;2.10;1.63;;;;;;;;;;5053014;28;20381;-74
2021/07/01 13:39:45;;;;;;;2.45;1.50;;;;;;;;;;5036942;28;20032;-75
2021/07/01 13:42:24;;;;;;;1.52;1.40;;;;;;;;;;5032957;28;20029;-75
2021/07/01 13:44:59;;;;;;;1.17;1.13;;;;;;;;;;5032973;28;20022;-75
2021/07/01 13:47:25;;;;;;;2.50;1.50;;;;;;;;;;5032553;28;20030;-75
2021/07/01 13:49:52;;;;;;;1.63;1.40;;;;;;;;;;5014021;28;20029;-75
2021/07/01 13:52:18;;;;;;;1.65;1.30;;;;;;;;;;5032658;28;20453;-75
2021/07/01 13:54:45;;;;;;;1.50;1.38;;;;;;;;;;5032544;28;20441;-75
2021/07/01 13:57:11;;;;;;;2.70;1.55;;;;;;;;;;5032216;28;20109;-74
2021/07/01 13:59:37;;;;;;;1.50;1.40;;;;;;;;;;5032283;28;20029;-75
2021/07/01 14:02:19;;;;;;;1.45;1.35;;;;;;;;;;5034849;28;20104;-74
2021/07/01 14:04:45;;;;;;;1.77;1.67;;;;;;;;;;5031696;28;20018;-74
2021/07/01 14:07:11;;;;;;;1.73;1.63;;;;;;;;;;5032234;28;20064;-75
2021/07/01 14:09:37;;;;;;;1.45;1.38;;;;;;;;;;5031094;28;20116;-74
2021/07/01 14:12:04;;;;;;;1.60;1.50;;;;;;;;;;5014362;28;20026;-74
2021/07/01 14:14:30;;;;;;;1.40;1.30;;;;;;;;;;5031734;28;20024;-74
2021/07/01 14:16:57;;;;;;;1.38;1.33;;;;;;;;;;5032572;28;20258;-74
2021/07/01 14:19:32;;;;;;;3.25;1.60;;;;;;;;;;5031607;28;20378;-75
2021/07/01 14:22:04;;;;;;;2.25;1.77;;;;;;;;;;5026475;28;20501;-75
2021/07/01 14:24:31;;;;;;;1.80;1.70;;;;;;;;;;5031945;28;20032;-74
2021/07/01 14:27:03;;;;;;;1.95;1.52;;;;;;;;;;5032134;28;20022;-76
2021/07/01 14:29:29;;;;;;;1.50;1.40;;;;;;;;;;5036642;28;20028;-75
2021/07/01 14:31:59;;;;;;;2.58;1.63;;;;;;;;;;5048104;28;20029;-74
2021/07/01 14:34:43;;;;;;;2.17;1.83;;;;;;;;;;5014100;28;20088;-75
2021/07/01 14:37:20;;;;;;;2.92;2.13;;;;;;;;;;5014032;28;20053;-74
2021/07/01 14:39:58;;;;;;;1.45;1.35;;;;;;;;;;5031760;28;20030;-75
2021/07/01 14:42:24;;;;;;;2.03;1.83;;;;;;;;;;5031216;28;20030;-74
2021/07/01 14:45:04;;;;;;;3.30;2.10;;;;;;;;;;5031808;28;20014;-75
2021/07/01 14:47:42;;;;;;;2.10;1.90;;;;;;;;;;5031318;28;20136;-74
2021/07/01 14:50:20;;;;;;;2.35;2.15;;;;;;;;;;5030960;28;20100;-75